Time;durP1;ratioP1;P1;durP2;ratioP2;P2;SDS_P1;SDS_P2;PMS_P1;PMS_P2;Temp;Humidity;BMP_temperature;BMP_pressure;BME280_temperature;BME280_humidity;BME280_pressure;Samples;Min_cycle;Max_cycle;Signal;HPM_P1;HPM_P2
2023/12/10 00:02:18;;;;;;;14.70;6.32;;;7.70;99.90;;;;;;5123252;27;20057;-66
2023/12/10 00:04:43;;;;;;;16.23;5.90;;;7.70;99.90;;;;;;5104946;27;20054;-66
2023/12/10 00:07:10;;;;;;;15.23;6.20;;;7.70;99.90;;;;;;5122811;27;20391;-66
2023/12/10 00:09:36;;;;;;;23.50;7.18;;;7.70;99.90;;;;;;5123263;27;20445;-66
2023/12/10 00:12:02;;;;;;;19.55;6.13;;;7.60;99.90;;;;;;5103043;27;20363;-66
2023/12/10 00:14:28;;;;;;;20.10;7.80;;;7.60;99.90;;;;;;5123541;27;20402;-66
2023/12/10 00:16:54;;;;;;;17.50;6.05;;;7.60;99.90;;;;;;5122086;27;20042;-65
2023/12/10 00:19:20;;;;;;;20.88;6.15;;;7.70;99.90;;;;;;5123257;27;20527;-66
2023/12/10 00:21:46;;;;;;;22.90;5.57;;;7.70;99.90;;;;;;5122212;27;20031;-66
2023/12/10 00:24:12;;;;;;;17.65;6.00;;;7.70;99.90;;;;;;5103262;27;20031;-65
2023/12/10 00:26:38;;;;;;;16.60;5.72;;;7.70;99.90;;;;;;5121795;27;20358;-66
2023/12/10 00:29:04;;;;;;;24.08;6.85;;;7.70;99.90;;;;;;5122616;27;20046;-66
2023/12/10 00:31:30;;;;;;;16.00;5.07;;;7.70;99.90;;;;;;5101569;27;20027;-66
2023/12/10 00:33:56;;;;;;;16.88;7.32;;;7.70;99.90;;;;;;5122669;27;20391;-66
2023/12/10 00:36:22;;;;;;;25.23;5.85;;;7.70;99.90;;;;;;5102992;28;20092;-66
2023/12/10 00:38:47;;;;;;;14.38;5.15;;;7.60;99.90;;;;;;5122470;28;20074;-66
2023/12/10 00:41:14;;;;;;;20.02;6.68;;;7.70;99.90;;;;;;5121771;28;20085;-66
2023/12/10 00:43:40;;;;;;;18.15;5.32;;;7.70;99.90;;;;;;5086427;28;20122;-66
2023/12/10 00:46:07;;;;;;;16.60;5.13;;;7.70;99.90;;;;;;5122381;28;20182;-66
2023/12/10 00:48:40;;;;;;;12.15;4.82;;;7.60;99.90;;;;;;5103313;28;20131;-66
2023/12/10 00:51:06;;;;;;;12.40;4.82;;;7.70;99.90;;;;;;5122210;28;20280;-67
2023/12/10 00:53:32;;;;;;;23.13;5.82;;;7.70;99.90;;;;;;5103929;28;20047;-66
2023/12/10 00:55:58;;;;;;;20.67;5.95;;;7.70;99.90;;;;;;5121548;28;20061;-65
2023/12/10 00:58:24;;;;;;;17.63;5.38;;;7.70;99.90;;;;;;5123217;27;20134;-66
2023/12/10 01:00:49;;;;;;;15.68;5.32;;;7.70;99.90;;;;;;5122174;28;20441;-67
2023/12/10 01:03:15;;;;;;;16.35;5.40;;;7.60;99.90;;;;;;5103655;28;20050;-67
2023/12/10 01:05:41;;;;;;;23.52;6.25;;;7.60;99.90;;;;;;5121142;27;20062;-67
2023/12/10 01:08:07;;;;;;;15.55;5.28;;;7.70;99.90;;;;;;5102881;28;20067;-65
2023/12/10 01:10:33;;;;;;;28.95;6.47;;;7.70;99.90;;;;;;5102436;28;20040;-66
2023/12/10 01:12:59;;;;;;;13.40;5.50;;;7.70;99.90;;;;;;5103744;28;20043;-66
2023/12/10 01:15:31;;;;;;;17.70;5.72;;;7.60;99.90;;;;;;5121914;28;20035;-66
2023/12/10 01:18:01;;;;;;;22.23;5.65;;;7.70;99.90;;;;;;5105108;27;20039;-66
2023/12/10 01:20:33;;;;;;;18.75;5.70;;;7.60;99.90;;;;;;5126408;27;20092;-65
2023/12/10 01:22:59;;;;;;;14.48;5.97;;;7.60;99.90;;;;;;5125771;27;20547;-66
2023/12/10 01:25:25;;;;;;;18.88;5.85;;;7.60;99.90;;;;;;5124875;27;20039;-66
2023/12/10 01:27:52;;;;;;;14.48;5.63;;;7.60;99.90;;;;;;5125768;27;20123;-66
2023/12/10 01:30:25;;;;;;;26.35;6.55;;;7.60;99.90;;;;;;5106867;27;20046;-66
2023/12/10 01:32:56;;;;;;;18.95;5.82;;;7.60;99.90;;;;;;5125940;27;20154;-66
2023/12/10 01:35:22;;;;;;;10.85;5.70;;;7.60;99.90;;;;;;5125699;27;20107;-66
2023/12/10 01:37:48;;;;;;;16.58;6.38;;;7.60;99.90;;;;;;5125316;27;20050;-66
2023/12/10 01:40:14;;;;;;;18.27;5.85;;;7.60;99.90;;;;;;5104957;27;20050;-66
2023/12/10 01:42:46;;;;;;;29.25;6.25;;;7.60;99.90;;;;;;5106857;27;20347;-66
2023/12/10 01:45:13;;;;;;;15.05;6.13;;;7.60;99.90;;;;;;5125265;27;20035;-66
2023/12/10 01:47:41;;;;;;;17.30;6.25;;;7.60;99.90;;;;;;5125924;27;20104;-66
2023/12/10 01:50:12;;;;;;;17.45;6.25;;;7.60;99.90;;;;;;5126097;27;20088;-66
2023/12/10 01:52:40;;;;;;;19.75;5.80;;;7.60;99.90;;;;;;5125645;27;20406;-65
2023/12/10 01:55:07;;;;;;;16.95;5.47;;;7.60;99.90;;;;;;5105577;27;20054;-67
2023/12/10 01:57:33;;;;;;;20.55;7.10;;;7.60;99.90;;;;;;5125920;27;20067;-65
2023/12/10 02:00:00;;;;;;;18.08;5.97;;;7.60;99.90;;;;;;5125632;27;20054;-65
2023/12/10 02:02:27;;;;;;;21.90;6.72;;;7.60;99.90;;;;;;5124005;27;20111;-65
2023/12/10 02:04:54;;;;;;;19.38;6.80;;;7.60;99.90;;;;;;5126133;27;20103;-66
2023/12/10 02:07:23;;;;;;;24.52;5.90;;;7.60;99.90;;;;;;5105637;27;20047;-65
2023/12/10 02:09:50;;;;;;;15.48;6.13;;;7.60;99.90;;;;;;5125472;27;20043;-64
2023/12/10 02:12:19;;;;;;;17.38;6.22;;;7.60;99.90;;;;;;5124807;27;20047;-64
2023/12/10 02:14:45;;;;;;;18.33;5.20;;;7.60;99.90;;;;;;5103938;27;20184;-65
2023/12/10 02:17:10;;;;;;;27.15;6.47;;;7.60;99.90;;;;;;5124913;27;20043;-65
2023/12/10 02:19:37;;;;;;;15.68;5.65;;;7.60;99.90;;;;;;5125729;27;20043;-66
2023/12/10 02:22:04;;;;;;;23.02;5.97;;;7.50;99.90;;;;;;5124476;27;20039;-66
2023/12/10 02:24:52;;;;;;;14.00;5.03;;;7.60;99.90;;;;;;5125871;27;20080;-66
2023/12/10 02:27:20;;;;;;;13.18;4.85;;;7.60;99.90;;;;;;5125192;27;20523;-66
2023/12/10 02:29:46;;;;;;;13.98;5.82;;;7.50;99.90;;;;;;5123314;27;20160;-66
2023/12/10 02:32:11;;;;;;;13.93;4.82;;;7.50;99.90;;;;;;5125553;27;20156;-66
2023/12/10 02:34:37;;;;;;;12.70;4.30;;;7.50;99.90;;;;;;5124380;27;20068;-65
2023/12/10 02:37:03;;;;;;;14.60;4.97;;;7.60;99.90;;;;;;5124266;27;20557;-66
2023/12/10 02:39:29;;;;;;;12.82;5.30;;;7.50;99.90;;;;;;5124306;27;20130;-66
2023/12/10 02:41:55;;;;;;;13.32;4.72;;;7.50;99.90;;;;;;5123891;27;20031;-66
2023/12/10 02:44:21;;;;;;;16.60;5.47;;;7.50;99.90;;;;;;5124495;27;20047;-66
2023/12/10 02:46:50;;;;;;;14.73;6.07;;;7.50;99.90;;;;;;5124638;27;20031;-65
2023/12/10 02:49:16;;;;;;;16.00;5.47;;;7.50;99.90;;;;;;5104965;27;20112;-65
2023/12/10 02:51:42;;;;;;;17.95;5.45;;;7.50;99.90;;;;;;5124888;27;20047;-67
2023/12/10 02:54:08;;;;;;;7.43;4.07;;;7.50;99.90;;;;;;5123369;27;20676;-65
2023/12/10 02:56:33;;;;;;;16.98;6.18;;;7.50;99.90;;;;;;5123722;27;20059;-66
2023/12/10 02:58:59;;;;;;;21.42;4.85;;;7.50;99.90;;;;;;5125363;27;20100;-66
2023/12/10 03:01:26;;;;;;;14.93;4.65;;;7.60;99.90;;;;;;5123965;27;20496;-65
2023/12/10 03:03:52;;;;;;;16.27;5.15;;;7.50;99.90;;;;;;5124363;27;20715;-66
2023/12/10 03:06:17;;;;;;;18.60;4.60;;;7.50;99.90;;;;;;5123663;27;20092;-65
2023/12/10 03:08:43;;;;;;;12.32;4.00;;;7.50;99.90;;;;;;5123837;27;20043;-65
2023/12/10 03:11:09;;;;;;;15.77;3.80;;;7.50;99.90;;;;;;5104226;27;20522;-66
2023/12/10 03:13:35;;;;;;;15.45;4.90;;;7.50;99.90;;;;;;5124217;27;20070;-65
2023/12/10 03:16:01;;;;;;;14.10;3.60;;;7.60;99.90;;;;;;5122487;27;20043;-66
2023/12/10 03:18:27;;;;;;;10.93;4.00;;;7.50;99.90;;;;;;5124247;27;20043;-66
2023/12/10 03:20:53;;;;;;;11.77;4.88;;;7.50;99.90;;;;;;5123031;27;20305;-67
2023/12/10 03:23:18;;;;;;;13.25;3.83;;;7.50;99.90;;;;;;5104147;27;20378;-65
2023/12/10 03:25:44;;;;;;;15.50;5.20;;;7.50;99.90;;;;;;5122786;27;20122;-65
2023/12/10 03:28:10;;;;;;;11.27;4.43;;;7.50;99.90;;;;;;5124059;27;20043;-66
2023/12/10 03:30:36;;;;;;;16.90;4.45;;;7.50;99.90;;;;;;5087403;27;20410;-66
2023/12/10 03:33:02;;;;;;;9.55;3.28;;;7.50;99.90;;;;;;5123891;27;20486;-66
2023/12/10 03:35:27;;;;;;;12.35;4.82;;;7.50;99.90;;;;;;5123975;27;20046;-66
2023/12/10 03:37:53;;;;;;;11.40;4.07;;;7.50;99.90;;;;;;5123429;27;20478;-66
2023/12/10 03:40:19;;;;;;;12.13;3.38;;;7.50;99.90;;;;;;5121979;27;20122;-66
2023/12/10 03:42:45;;;;;;;11.45;3.75;;;7.50;99.90;;;;;;5124009;27;20099;-66
2023/12/10 03:45:11;;;;;;;10.70;3.65;;;7.60;99.90;;;;;;5123287;27;20130;-66
2023/12/10 03:47:36;;;;;;;11.05;4.78;;;7.50;99.90;;;;;;5104468;27;20070;-66
2023/12/10 03:50:04;;;;;;;14.68;4.47;;;7.60;99.90;;;;;;5123016;27;20061;-66
2023/12/10 03:52:29;;;;;;;9.75;3.92;;;7.60;99.90;;;;;;5104603;27;20565;-66
2023/12/10 03:54:55;;;;;;;11.80;4.75;;;7.60;99.90;;;;;;5122657;27;20305;-66
2023/12/10 03:57:21;;;;;;;13.27;4.35;;;7.60;99.90;;;;;;5122338;27;20141;-66
2023/12/10 03:59:47;;;;;;;14.90;5.28;;;7.60;99.90;;;;;;5121683;27;20130;-67
2023/12/10 04:02:13;;;;;;;13.65;5.07;;;7.60;99.90;;;;;;5123620;27;20121;-66
2023/12/10 04:04:39;;;;;;;10.60;4.35;;;7.60;99.90;;;;;;5123235;27;20027;-65
2023/12/10 04:07:05;;;;;;;9.75;3.90;;;7.60;99.90;;;;;;5104630;27;20049;-65
2023/12/10 04:09:31;;;;;;;16.98;6.00;;;7.60;99.90;;;;;;5122720;27;20047;-66
2023/12/10 04:11:58;;;;;;;15.27;5.22;;;7.60;99.90;;;;;;5122520;27;20035;-65
2023/12/10 04:14:24;;;;;;;9.27;4.20;;;7.60;99.90;;;;;;5123455;27;20055;-65
2023/12/10 04:16:50;;;;;;;18.00;5.72;;;7.60;99.90;;;;;;5104294;27;20062;-66
2023/12/10 04:19:17;;;;;;;19.92;4.72;;;7.60;99.90;;;;;;5123829;27;20039;-66
2023/12/10 04:21:42;;;;;;;12.38;4.22;;;7.60;99.90;;;;;;5123447;27;20047;-65
2023/12/10 04:24:08;;;;;;;14.45;6.95;;;7.60;99.90;;;;;;5123165;27;20131;-65
2023/12/10 04:26:34;;;;;;;22.33;6.13;;;7.70;99.90;;;;;;5122142;27;20111;-64
2023/12/10 04:29:00;;;;;;;14.45;5.05;;;7.70;99.90;;;;;;5122384;27;20075;-65
2023/12/10 04:31:26;;;;;;;12.75;5.93;;;7.70;99.90;;;;;;5103911;27;20051;-65
2023/12/10 04:33:52;;;;;;;11.75;4.43;;;7.70;99.90;;;;;;5123779;27;20088;-65
2023/12/10 04:36:18;;;;;;;11.98;4.53;;;7.70;99.90;;;;;;5124125;27;20039;-65
2023/12/10 04:38:43;;;;;;;13.70;4.40;;;7.70;99.90;;;;;;5122627;28;20055;-66
2023/12/10 04:41:09;;;;;;;7.15;3.60;;;7.70;99.90;;;;;;5139503;27;20110;-65
2023/12/10 04:43:35;;;;;;;10.02;4.80;;;7.70;99.90;;;;;;5124806;28;20042;-67
2023/12/10 04:46:01;;;;;;;15.90;4.50;;;7.70;99.90;;;;;;5122796;28;20076;-65
2023/12/10 04:48:27;;;;;;;16.10;5.07;;;7.70;99.90;;;;;;5122765;28;20082;-65
2023/12/10 04:50:53;;;;;;;20.00;5.30;;;7.70;99.90;;;;;;5123390;28;20051;-65
2023/12/10 04:53:19;;;;;;;11.50;3.63;;;7.70;99.90;;;;;;5124565;27;20921;-65
2023/12/10 04:55:44;;;;;;;14.13;4.65;;;7.70;99.90;;;;;;5125396;27;20473;-65
2023/12/10 04:58:10;;;;;;;14.35;4.15;;;7.70;99.90;;;;;;5126319;27;20047;-65
2023/12/10 05:00:37;;;;;;;10.38;4.20;;;7.70;99.90;;;;;;5126616;27;20070;-65
2023/12/10 05:03:02;;;;;;;12.38;4.22;;;7.70;99.90;;;;;;5126850;27;20376;-65
2023/12/10 05:05:30;;;;;;;8.77;4.57;;;7.70;99.90;;;;;;5126846;27;21023;-65
2023/12/10 05:07:56;;;;;;;11.25;3.80;;;7.80;99.90;;;;;;5127103;27;20452;-65
2023/12/10 05:10:22;;;;;;;10.85;4.28;;;7.80;99.90;;;;;;5125424;27;20086;-64
2023/12/10 05:12:48;;;;;;;11.13;2.80;;;7.70;99.90;;;;;;5107281;27;20071;-65
2023/12/10 05:15:15;;;;;;;10.57;3.88;;;7.80;99.90;;;;;;5126205;27;20050;-65
2023/12/10 05:17:41;;;;;;;10.32;3.60;;;7.70;99.90;;;;;;5126635;27;20039;-65
2023/12/10 05:20:10;;;;;;;10.35;3.53;;;7.80;99.90;;;;;;5126014;27;20043;-65
2023/12/10 05:22:36;;;;;;;7.78;2.75;;;7.80;99.90;;;;;;5107928;27;20070;-65
2023/12/10 05:25:03;;;;;;;8.88;2.80;;;7.80;99.90;;;;;;5125515;27;20486;-66
2023/12/10 05:27:32;;;;;;;4.90;2.10;;;7.80;99.90;;;;;;5126149;27;20111;-66
2023/12/10 05:29:59;;;;;;;7.60;2.35;;;7.80;99.90;;;;;;5108098;27;20075;-66
2023/12/10 05:32:25;;;;;;;5.28;2.47;;;7.80;99.90;;;;;;5126175;27;20039;-66
2023/12/10 05:34:51;;;;;;;6.47;1.92;;;7.80;99.90;;;;;;5126621;27;20078;-66
2023/12/10 05:37:17;;;;;;;5.10;1.88;;;7.80;99.90;;;;;;5126260;27;20071;-66
2023/12/10 05:39:43;;;;;;;5.65;2.10;;;7.80;99.90;;;;;;5106092;27;20482;-66
2023/12/10 05:42:09;;;;;;;6.38;2.55;;;7.80;99.90;;;;;;5124459;27;20502;-66
2023/12/10 05:44:35;;;;;;;4.88;2.33;;;7.80;99.90;;;;;;5125048;27;20466;-65
2023/12/10 05:47:01;;;;;;;7.70;3.10;;;7.80;99.90;;;;;;5089634;27;20049;-66
2023/12/10 05:49:26;;;;;;;6.90;2.13;;;7.80;99.90;;;;;;5122404;27;20046;-65
2023/12/10 05:51:52;;;;;;;6.40;2.20;;;7.80;99.90;;;;;;5104621;27;20490;-65
2023/12/10 05:54:18;;;;;;;12.90;3.05;;;7.80;99.90;;;;;;5123066;27;20055;-64
2023/12/10 05:56:45;;;;;;;7.80;2.22;;;7.80;99.90;;;;;;5120674;27;20520;-65
2023/12/10 05:59:10;;;;;;;8.02;3.25;;;7.80;99.90;;;;;;5123185;27;20601;-64
2023/12/10 06:01:36;;;;;;;3.25;1.95;;;7.80;99.90;;;;;;5122905;27;20068;-66
2023/12/10 06:04:02;;;;;;;8.90;3.20;;;7.80;99.90;;;;;;5103177;27;20092;-65
2023/12/10 06:06:28;;;;;;;7.82;2.88;;;7.80;99.90;;;;;;5102604;27;20493;-65
2023/12/10 06:08:54;;;;;;;7.20;2.65;;;7.80;99.90;;;;;;5123030;27;20229;-65
2023/12/10 06:11:19;;;;;;;9.25;2.80;;;7.80;99.90;;;;;;5120794;27;20097;-65
2023/12/10 06:13:45;;;;;;;12.02;3.50;;;7.80;99.90;;;;;;5121320;27;20497;-64
2023/12/10 06:16:11;;;;;;;7.07;2.22;;;7.80;99.90;;;;;;5122603;27;20492;-66
2023/12/10 06:18:37;;;;;;;8.00;2.90;;;7.80;99.90;;;;;;5103400;27;20051;-66
2023/12/10 06:21:02;;;;;;;11.32;2.83;;;7.80;99.90;;;;;;5121400;27;20066;-66
2023/12/10 06:23:28;;;;;;;8.25;2.97;;;7.80;99.90;;;;;;5122752;27;20031;-66
2023/12/10 06:25:54;;;;;;;6.10;2.25;;;7.80;99.90;;;;;;5121638;27;20140;-66
2023/12/10 06:28:20;;;;;;;9.20;3.00;;;7.80;99.90;;;;;;5104074;27;20187;-65
2023/12/10 06:30:45;;;;;;;4.38;2.08;;;7.80;99.90;;;;;;5123079;27;20184;-65
2023/12/10 06:33:11;;;;;;;7.82;2.28;;;7.80;99.90;;;;;;5122605;27;20565;-65
2023/12/10 06:35:37;;;;;;;4.88;1.90;;;7.80;99.90;;;;;;5103318;27;20046;-66
2023/12/10 06:38:03;;;;;;;10.95;3.83;;;7.80;99.90;;;;;;5122809;27;20106;-66
2023/12/10 06:40:29;;;;;;;5.32;2.20;;;7.80;99.90;;;;;;5100257;27;20115;-66
2023/12/10 06:42:54;;;;;;;5.75;1.75;;;7.80;99.90;;;;;;5121524;27;20035;-65
2023/12/10 06:45:20;;;;;;;5.68;2.38;;;7.80;99.90;;;;;;5102218;27;20551;-66
2023/12/10 06:47:46;;;;;;;6.93;2.38;;;7.80;99.90;;;;;;5122756;27;20114;-66
2023/12/10 06:50:12;;;;;;;3.55;1.77;;;7.80;99.90;;;;;;5121773;27;20397;-66
2023/12/10 06:52:37;;;;;;;5.85;2.00;;;7.80;99.90;;;;;;5119597;27;20065;-66
2023/12/10 06:55:04;;;;;;;5.72;1.90;;;7.80;99.90;;;;;;5119366;27;20082;-65
2023/12/10 06:57:29;;;;;;;5.47;2.13;;;7.80;99.90;;;;;;5120848;27;20055;-65
2023/12/10 06:59:55;;;;;;;10.00;2.63;;;7.90;99.90;;;;;;5122041;27;20468;-65
2023/12/10 07:02:21;;;;;;;4.68;2.15;;;7.90;99.90;;;;;;5102585;27;20524;-65
2023/12/10 07:04:47;;;;;;;4.47;1.98;;;7.90;99.90;;;;;;5122017;27;20948;-65
2023/12/10 07:07:13;;;;;;;4.35;1.50;;;7.80;99.90;;;;;;5121641;27;20092;-65
2023/12/10 07:09:38;;;;;;;7.47;2.80;;;7.90;99.90;;;;;;5122314;27;20505;-66
2023/12/10 07:12:04;;;;;;;3.03;1.50;;;7.80;99.90;;;;;;5100244;27;20049;-65
2023/12/10 07:14:30;;;;;;;5.82;1.77;;;7.90;99.90;;;;;;5101544;27;20062;-65
2023/12/10 07:16:56;;;;;;;4.68;1.65;;;7.90;99.90;;;;;;5119877;27;20177;-65
2023/12/10 07:19:23;;;;;;;8.05;2.70;;;7.90;99.90;;;;;;5121214;27;20130;-65
2023/12/10 07:21:52;;;;;;;7.35;2.40;;;7.90;99.90;;;;;;5119778;27;20043;-65
2023/12/10 07:24:19;;;;;;;11.52;3.00;;;7.90;99.90;;;;;;5120111;27;20042;-66
2023/12/10 07:26:45;;;;;;;6.55;2.45;;;7.90;99.90;;;;;;5118362;27;20074;-66
2023/12/10 07:29:11;;;;;;;7.75;2.58;;;7.90;99.90;;;;;;5101738;27;20101;-65
2023/12/10 07:31:37;;;;;;;6.93;2.10;;;7.90;99.90;;;;;;5102619;27;20051;-65
2023/12/10 07:34:02;;;;;;;8.20;3.20;;;7.90;99.90;;;;;;5121729;27;20039;-65
2023/12/10 07:36:28;;;;;;;6.13;2.22;;;7.90;99.90;;;;;;5102707;27;20047;-66
2023/12/10 07:38:54;;;;;;;6.35;1.98;;;7.90;99.90;;;;;;5122348;27;20162;-65
2023/12/10 07:41:21;;;;;;;4.82;1.70;;;7.90;99.90;;;;;;5120728;27;20455;-66
2023/12/10 07:43:47;;;;;;;4.75;2.17;;;7.90;99.90;;;;;;5121093;27;20077;-65
2023/12/10 07:46:13;;;;;;;7.78;2.80;;;7.90;99.90;;;;;;5120751;27;20039;-65
2023/12/10 07:48:39;;;;;;;3.80;2.10;;;7.90;99.90;;;;;;5119723;27;20151;-65
2023/12/10 07:51:04;;;;;;;5.88;2.97;;;7.90;99.90;;;;;;5121199;27;20498;-65
2023/12/10 07:53:30;;;;;;;12.10;3.15;;;7.90;99.90;;;;;;5122673;27;20129;-66
2023/12/10 07:55:56;;;;;;;11.45;3.70;;;7.90;99.90;;;;;;5100710;27;20067;-65
2023/12/10 07:58:22;;;;;;;9.93;3.00;;;7.90;99.90;;;;;;5119470;27;20163;-65
2023/12/10 08:00:48;;;;;;;10.95;3.17;;;7.90;99.90;;;;;;5122132;27;20062;-65
2023/12/10 08:03:14;;;;;;;5.97;2.95;;;7.90;99.90;;;;;;5121703;27;20050;-66
2023/12/10 08:05:40;;;;;;;11.40;3.10;;;7.90;99.90;;;;;;5121846;27;20046;-65
2023/12/10 08:08:06;;;;;;;10.73;4.07;;;7.90;99.90;;;;;;5122621;27;20107;-65
2023/12/10 08:10:32;;;;;;;10.70;3.35;;;7.90;99.90;;;;;;5121850;27;20125;-65
2023/12/10 08:12:58;;;;;;;10.43;3.10;;;7.90;99.90;;;;;;5122819;27;20167;-65
2023/12/10 08:15:25;;;;;;;8.25;2.78;;;7.90;99.90;;;;;;5123550;27;20129;-65
2023/12/10 08:17:52;;;;;;;14.00;3.45;;;7.90;99.90;;;;;;5123831;27;20034;-65
2023/12/10 08:20:17;;;;;;;10.70;3.70;;;7.90;99.90;;;;;;5121500;27;20070;-66
2023/12/10 08:22:43;;;;;;;11.45;4.15;;;7.90;99.90;;;;;;5122245;27;20182;-66
2023/12/10 08:25:09;;;;;;;11.23;3.03;;;7.90;99.90;;;;;;5103189;27;20136;-68
2023/12/10 08:27:35;;;;;;;16.67;6.90;;;7.90;99.90;;;;;;5121171;27;20572;-66
2023/12/10 08:30:01;;;;;;;14.60;3.17;;;7.90;99.90;;;;;;5122891;27;20058;-65
2023/12/10 08:32:28;;;;;;;10.50;3.88;;;7.90;99.90;;;;;;5121791;27;20459;-65
2023/12/10 08:34:53;;;;;;;11.43;3.15;;;7.90;99.90;;;;;;5121554;27;20043;-65
2023/12/10 08:37:19;;;;;;;12.13;3.45;;;7.90;99.90;;;;;;5122436;27;20066;-66
2023/12/10 08:39:48;;;;;;;12.13;3.17;;;7.90;99.90;;;;;;5121711;27;20058;-65
2023/12/10 08:42:14;;;;;;;8.48;4.20;;;8.00;99.90;;;;;;5119679;27;20112;-66
2023/12/10 08:44:40;;;;;;;15.20;3.22;;;7.90;99.90;;;;;;5122460;27;20043;-66
2023/12/10 08:47:05;;;;;;;10.07;3.20;;;8.00;99.90;;;;;;5121182;27;20439;-66
2023/12/10 08:49:31;;;;;;;10.68;3.63;;;8.00;99.90;;;;;;5121706;27;20050;-66
2023/12/10 08:51:57;;;;;;;12.25;3.67;;;8.00;99.90;;;;;;5122173;28;20062;-66
2023/12/10 08:54:24;;;;;;;14.02;3.92;;;8.00;99.90;;;;;;5122434;28;20817;-66
2023/12/10 08:56:50;;;;;;;15.43;4.05;;;8.00;99.90;;;;;;5121463;27;20057;-66
2023/12/10 08:59:16;;;;;;;11.82;4.22;;;8.00;99.90;;;;;;5107613;28;20031;-66
2023/12/10 09:01:43;;;;;;;8.80;3.05;;;8.00;99.90;;;;;;5119939;27;20039;-65
2023/12/10 09:04:09;;;;;;;18.73;4.18;;;8.00;99.90;;;;;;5122839;28;20392;-65
2023/12/10 09:06:34;;;;;;;9.23;2.85;;;8.00;99.90;;;;;;5120053;27;20118;-66
2023/12/10 09:09:00;;;;;;;9.27;3.70;;;8.00;99.90;;;;;;5120316;27;20107;-66
2023/12/10 09:11:26;;;;;;;12.18;4.47;;;8.00;99.90;;;;;;5093686;28;20095;-66
2023/12/10 09:13:52;;;;;;;15.25;3.88;;;8.00;99.90;;;;;;5119516;27;20038;-66
2023/12/10 09:16:20;;;;;;;9.00;2.85;;;8.00;99.90;;;;;;5117611;28;20055;-66
2023/12/10 09:18:45;;;;;;;15.65;3.58;;;8.00;99.90;;;;;;5103412;28;20133;-65
2023/12/10 09:21:11;;;;;;;11.70;4.07;;;8.00;99.90;;;;;;5120909;28;20126;-66
2023/12/10 09:23:37;;;;;;;10.48;2.63;;;8.00;99.90;;;;;;5122273;27;20042;-66
2023/12/10 09:26:03;;;;;;;8.73;2.75;;;8.00;99.90;;;;;;5120129;28;20088;-66
2023/12/10 09:28:29;;;;;;;7.78;3.22;;;8.00;99.90;;;;;;5120616;28;20394;-66
2023/12/10 09:30:55;;;;;;;7.43;3.05;;;8.00;99.90;;;;;;5121684;28;20043;-66
2023/12/10 09:33:20;;;;;;;8.95;3.88;;;8.00;99.90;;;;;;5122489;28;20034;-66
2023/12/10 09:35:46;;;;;;;8.10;3.08;;;8.00;99.90;;;;;;5123048;27;20042;-66
2023/12/10 09:38:12;;;;;;;8.38;2.70;;;8.00;99.90;;;;;;5124315;27;20063;-66
2023/12/10 09:40:38;;;;;;;9.15;3.47;;;8.00;99.90;;;;;;5122191;27;20039;-66
2023/12/10 09:43:04;;;;;;;11.50;3.80;;;8.00;99.90;;;;;;5125044;27;20457;-66
2023/12/10 09:45:31;;;;;;;7.55;3.38;;;8.00;99.90;;;;;;5125207;27;20117;-66
2023/12/10 09:47:57;;;;;;;9.38;2.92;;;8.10;99.90;;;;;;5125309;27;20132;-66
2023/12/10 09:50:23;;;;;;;12.45;3.75;;;8.10;99.90;;;;;;5125480;27;20082;-66
2023/12/10 09:52:50;;;;;;;13.27;2.97;;;8.10;99.90;;;;;;5124791;27;20039;-65
2023/12/10 09:55:17;;;;;;;13.85;4.00;;;8.10;99.90;;;;;;5123806;27;20078;-66
2023/12/10 09:57:43;;;;;;;9.02;3.22;;;8.10;99.90;;;;;;5105399;27;20205;-66
2023/12/10 10:00:10;;;;;;;14.27;3.97;;;8.10;99.90;;;;;;5124033;27;20562;-66
2023/12/10 10:02:36;;;;;;;13.43;4.22;;;8.10;99.90;;;;;;5124158;27;20045;-66
2023/12/10 10:05:05;;;;;;;14.05;3.45;;;8.10;99.90;;;;;;5124765;27;20188;-66
2023/12/10 10:07:31;;;;;;;10.18;3.40;;;8.10;99.90;;;;;;5124554;27;20062;-66
2023/12/10 10:09:58;;;;;;;10.73;3.75;;;8.10;99.90;;;;;;5123830;27;20132;-65
2023/12/10 10:12:30;;;;;;;9.52;3.00;;;8.10;99.90;;;;;;5124175;27;20161;-65
2023/12/10 10:14:58;;;;;;;14.13;4.50;;;8.10;99.90;;;;;;5104293;27;20039;-65
2023/12/10 10:17:28;;;;;;;17.38;6.57;;;;;;;;;;5124270;27;20035;-65
2023/12/10 10:19:54;;;;;;;12.43;4.53;;;;;;;;;;5123924;27;20418;-65
2023/12/10 10:22:22;;;;;;;10.85;3.65;;;;;;;;;;5124778;27;20039;-65
2023/12/10 10:24:48;;;;;;;12.80;4.50;;;;;;;;;;5124978;27;20078;-66
2023/12/10 10:27:14;;;;;;;11.98;4.43;;;8.10;99.90;;;;;;5122606;27;20046;-67
2023/12/10 10:29:40;;;;;;;10.25;4.78;;;8.10;99.90;;;;;;5124150;27;20043;-65
2023/12/10 10:32:10;;;;;;;17.23;5.45;;;8.20;99.90;;;;;;5124451;27;20043;-65
2023/12/10 10:34:36;;;;;;;10.30;3.83;;;8.10;99.90;;;;;;5123662;27;20130;-66
2023/12/10 10:37:01;;;;;;;12.80;4.93;;;8.20;99.90;;;;;;5123876;27;20121;-66
2023/12/10 10:39:30;;;;;;;14.88;4.90;;;8.20;99.90;;;;;;5125133;27;20043;-66
2023/12/10 10:41:57;;;;;;;15.23;5.28;;;8.20;99.90;;;;;;5102329;27;20467;-66
2023/12/10 10:44:23;;;;;;;12.45;4.40;;;8.20;99.90;;;;;;5123226;27;20027;-66
2023/12/10 10:46:49;;;;;;;13.93;4.95;;;8.20;99.90;;;;;;5122893;27;20712;-66
2023/12/10 10:49:15;;;;;;;15.77;4.95;;;8.20;99.90;;;;;;5123908;27;20043;-66
2023/12/10 10:51:41;;;;;;;9.85;4.97;;;8.20;99.90;;;;;;5123089;27;20051;-66
2023/12/10 10:54:08;;;;;;;10.55;4.50;;;8.20;99.90;;;;;;5124690;27;20488;-66
2023/12/10 10:56:34;;;;;;;14.10;6.55;;;8.30;99.90;;;;;;5103454;27;20039;-66
2023/12/10 10:59:00;;;;;;;13.18;4.43;;;8.30;99.90;;;;;;5105568;27;20074;-66
2023/12/10 11:01:36;;;;;;;11.23;4.53;;;;;;;;;;5121939;27;20058;-66
2023/12/10 11:04:02;;;;;;;16.77;5.53;;;;;;;;;;5123858;27;20135;-66
2023/12/10 11:06:28;;;;;;;24.10;5.57;;;8.30;99.90;;;;;;5123692;27;20402;-66
2023/12/10 11:08:57;;;;;;;18.10;5.35;;;8.40;99.90;;;;;;5124080;27;20050;-66
2023/12/10 11:11:25;;;;;;;18.10;5.90;;;8.40;99.90;;;;;;5102221;27;20059;-66
2023/12/10 11:13:53;;;;;;;20.10;5.57;;;8.40;99.90;;;;;;5123695;27;20505;-65
2023/12/10 11:16:21;;;;;;;21.42;5.30;;;8.40;99.90;;;;;;5121765;27;20035;-66
2023/12/10 11:18:56;;;;;;;13.38;5.07;;;8.40;99.90;;;;;;5104149;27;20039;-66
2023/12/10 11:21:22;;;;;;;18.67;6.22;;;8.40;99.90;;;;;;5103264;27;20031;-67
2023/12/10 11:23:48;;;;;;;20.85;6.00;;;8.40;99.90;;;;;;5123916;27;20129;-66
2023/12/10 11:26:14;;;;;;;18.42;5.75;;;8.40;99.90;;;;;;5121119;27;20055;-66
2023/12/10 11:28:44;;;;;;;13.40;5.57;;;;;;;;;;5123387;27;20073;-65
2023/12/10 11:31:10;;;;;;;17.50;6.38;;;8.50;99.90;;;;;;5120440;27;20098;-66
2023/12/10 11:33:41;;;;;;;18.45;5.03;;;8.50;99.90;;;;;;5123842;27;20901;-66
2023/12/10 11:36:08;;;;;;;13.15;4.82;;;8.50;99.90;;;;;;5122197;27;20097;-65
2023/12/10 11:38:34;;;;;;;15.20;6.20;;;8.50;99.90;;;;;;5123074;27;20417;-66
2023/12/10 11:41:00;;;;;;;17.92;5.90;;;8.50;99.90;;;;;;5122116;27;20130;-66
2023/12/10 11:43:26;;;;;;;15.75;5.10;;;8.50;99.90;;;;;;5103086;27;20058;-65
2023/12/10 11:45:56;;;;;;;20.10;6.03;;;8.50;99.90;;;;;;5121229;27;20047;-66
2023/12/10 11:48:22;;;;;;;19.92;5.88;;;8.50;99.90;;;;;;5121643;27;20058;-66
2023/12/10 11:50:49;;;;;;;13.20;5.35;;;8.50;99.90;;;;;;5122643;27;20046;-66
2023/12/10 11:53:17;;;;;;;13.35;6.20;;;8.50;99.90;;;;;;5122618;27;20057;-66
2023/12/10 11:55:44;;;;;;;29.30;5.07;;;8.50;99.90;;;;;;5121842;27;20042;-66
2023/12/10 11:58:10;;;;;;;13.20;4.75;;;8.50;99.90;;;;;;5120834;27;20110;-66
2023/12/10 12:00:36;;;;;;;19.90;6.28;;;8.50;99.90;;;;;;5122156;27;20130;-67
2023/12/10 12:03:06;;;;;;;23.45;5.82;;;8.50;99.90;;;;;;5122507;27;20046;-67
2023/12/10 12:05:32;;;;;;;13.38;4.93;;;8.50;99.90;;;;;;5122693;27;20162;-65
2023/12/10 12:08:00;;;;;;;20.08;6.38;;;8.60;99.90;;;;;;5102173;27;20051;-66
2023/12/10 12:10:36;;;;;;;21.40;6.10;;;8.60;99.90;;;;;;5120284;27;20461;-66
2023/12/10 12:13:04;;;;;;;14.20;5.50;;;8.60;99.90;;;;;;5122294;27;20049;-66
2023/12/10 12:15:30;;;;;;;13.00;6.68;;;8.60;99.90;;;;;;5121483;27;20076;-65
2023/12/10 12:17:56;;;;;;;14.55;5.45;;;8.60;99.90;;;;;;5122137;27;20043;-65
2023/12/10 12:20:24;;;;;;;15.40;5.57;;;8.60;99.90;;;;;;5121943;27;20035;-66
2023/12/10 12:22:50;;;;;;;14.27;5.25;;;8.60;99.90;;;;;;5122228;27;20074;-65
2023/12/10 12:25:19;;;;;;;16.63;5.95;;;8.70;99.90;;;;;;5122038;27;20116;-66
2023/12/10 12:27:45;;;;;;;17.77;6.13;;;8.60;99.90;;;;;;5121351;27;20047;-66
2023/12/10 12:30:12;;;;;;;19.45;6.15;;;8.70;99.90;;;;;;5119662;27;20055;-66
2023/12/10 12:32:38;;;;;;;19.23;6.28;;;8.70;99.90;;;;;;5119566;27;20567;-66
2023/12/10 12:35:07;;;;;;;19.52;6.85;;;8.70;99.90;;;;;;5122672;27;20051;-65
2023/12/10 12:37:33;;;;;;;14.25;4.78;;;8.70;99.90;;;;;;5122593;27;20421;-68
2023/12/10 12:39:59;;;;;;;16.83;5.78;;;8.70;99.90;;;;;;5122349;27;20063;-65
2023/12/10 12:42:25;;;;;;;16.52;5.32;;;8.70;99.90;;;;;;5099603;28;20184;-66
2023/12/10 12:44:52;;;;;;;14.73;5.57;;;8.70;99.90;;;;;;5121785;27;20491;-66
2023/12/10 12:47:18;;;;;;;8.88;4.47;;;8.70;99.90;;;;;;5102079;28;20721;-66